Time;durP1;ratioP1;P1;durP2;ratioP2;P2;SDS_P1;SDS_P2;PMS_P1;PMS_P2;Temp;Humidity;BMP_temperature;BMP_pressure;BME280_temperature;BME280_humidity;BME280_pressure;Samples;Min_cycle;Max_cycle;Signal;HPM_P1;HPM_P2
2023/10/27 00:00:36;;;;;;;16.63;7.43;;;;;;;;;;5009432;28;20064;-66
2023/10/27 00:03:30;;;;;;;10.85;6.63;;;;;;;;;;5009276;28;20092;-63
2023/10/27 00:06:24;;;;;;;12.20;7.43;;;;;;;;;;5013238;28;20049;-61
2023/10/27 00:09:12;;;;;;;13.45;7.25;;;;;;;;;;5002962;28;20069;-60
2023/10/27 00:12:06;;;;;;;13.35;6.90;;;;;;;;;;5010368;28;20050;-60
2023/10/27 00:14:53;;;;;;;13.77;7.80;;;;;;;;;;5010780;28;20522;-60
2023/10/27 00:17:47;;;;;;;12.35;6.97;;;;;;;;;;5004377;28;20139;-60
2023/10/27 00:20:34;;;;;;;16.08;7.95;;;;;;;;;;5003569;28;20148;-52
2023/10/27 00:23:28;;;;;;;13.30;7.75;;;;;;;;;;5008631;28;20049;-63
2023/10/27 00:25:56;;;;;;;12.57;7.43;;;;;;;;;;5009931;28;20056;-63
2023/10/27 00:28:50;;;;;;;12.00;7.68;;;;;;;;;;5013257;28;20057;-64
2023/10/27 00:31:37;;;;;;;13.80;7.85;;;;;;;;;;5011628;28;20059;-63
2023/10/27 00:34:31;;;;;;;13.23;6.95;;;;;;;;;;5011813;28;20112;-64
2023/10/27 00:37:18;;;;;;;15.95;8.70;;;;;;;;;;5013421;28;20571;-63
2023/10/27 00:40:13;;;;;;;17.27;8.70;;;;;;;;;;5012997;28;20190;-60
2023/10/27 00:43:02;;;;;;;20.05;8.75;;;;;;;;;;5015733;28;20128;-67
2023/10/27 00:45:55;;;;;;;21.83;9.43;;;;;;;;;;5013087;28;20796;-66
2023/10/27 00:48:43;;;;;;;15.70;8.48;;;;;;;;;;5009416;28;20704;-66
2023/10/27 00:51:37;;;;;;;17.65;9.15;;;;;;;;;;5009538;28;21208;-67
2023/10/27 00:54:24;;;;;;;18.90;9.52;;;;;;;;;;5012960;28;20072;-66
2023/10/27 00:57:18;;;;;;;15.70;8.52;;;;;;;;;;5014868;28;20053;-63
2023/10/27 01:00:14;;;;;;;15.38;9.48;;;;;;;;;;5010915;28;20081;-53
2023/10/27 01:03:06;;;;;;;19.30;9.23;;;;;;;;;;5005657;28;20050;-67
2023/10/27 01:06:00;;;;;;;18.63;8.88;;;;;;;;;;5012839;28;20045;-66
2023/10/27 01:08:47;;;;;;;21.67;9.32;;;;;;;;;;5011934;28;20166;-66
2023/10/27 01:11:41;;;;;;;17.05;10.32;;;;;;;;;;5013694;28;20058;-66
2023/10/27 01:14:29;;;;;;;20.88;11.15;;;;;;;;;;5011471;28;20061;-66
2023/10/27 01:17:22;;;;;;;21.50;10.45;;;;;;;;;;5011604;28;20095;-58
2023/10/27 01:20:10;;;;;;;17.33;9.55;;;;;;;;;;5013679;28;20069;-60
2023/10/27 01:23:04;;;;;;;15.75;9.82;;;;;;;;;;5012938;28;20084;-59
2023/10/27 01:25:51;;;;;;;22.35;10.50;;;;;;;;;;5004841;28;20132;-59
2023/10/27 01:28:44;;;;;;;19.70;10.48;;;;;;;;;;5008918;28;20057;-60
2023/10/27 01:31:38;;;;;;;23.20;11.23;;;;;;;;;;5011404;28;20103;-59
2023/10/27 01:34:32;;;;;;;25.90;11.38;;;;;;;;;;5010841;28;20430;-60
2023/10/27 01:37:20;;;;;;;25.25;11.93;;;;;;;;;;5011084;28;20045;-63
2023/10/27 01:40:14;;;;;;;19.98;10.57;;;;;;;;;;5014227;28;20049;-63
2023/10/27 01:43:01;;;;;;;17.00;10.52;;;;;;;;;;5008424;28;20435;-64
2023/10/27 01:45:56;;;;;;;23.70;10.57;;;;;;;;;;5009255;28;20855;-64
2023/10/27 01:48:43;;;;;;;19.23;11.18;;;;;;;;;;5012846;28;20092;-64
2023/10/27 01:51:36;;;;;;;23.48;11.85;;;;;;;;;;5009374;28;20626;-65
2023/10/27 01:54:24;;;;;;;22.92;11.15;;;;;;;;;;5012134;28;20057;-66
2023/10/27 01:57:18;;;;;;;23.23;11.38;;;;;;;;;;5004155;28;20112;-66
2023/10/27 02:00:06;;;;;;;20.25;11.40;;;;;;;;;;5009982;28;20506;-66
2023/10/27 02:03:05;;;;;;;28.50;11.63;;;;;;;;;;5008438;28;20642;-67
2023/10/27 02:05:52;;;;;;;21.88;11.82;;;;;;;;;;5011859;28;20073;-67
2023/10/27 02:08:46;;;;;;;26.50;12.30;;;;;;;;;;5006557;28;20155;-67
2023/10/27 02:11:33;;;;;;;25.67;11.57;;;;;;;;;;5010050;28;20053;-59
2023/10/27 02:14:28;;;;;;;20.42;11.43;;;;;;;;;;5015201;28;20041;-67
2023/10/27 02:17:15;;;;;;;27.45;11.93;;;;;;;;;;5004025;28;20085;-66
2023/10/27 02:20:08;;;;;;;23.15;10.65;;;;;;;;;;5007691;28;20076;-66
2023/10/27 02:22:56;;;;;;;25.30;10.65;;;;;;;;;;5009970;28;20053;-66
2023/10/27 02:25:49;;;;;;;29.10;11.68;;;;;;;;;;5006557;28;20069;-66
2023/10/27 02:28:43;;;;;;;24.05;10.80;;;;;;;;;;5007297;28;20053;-65
2023/10/27 02:31:38;;;;;;;23.95;11.07;;;;;;;;;;5011685;28;20057;-64
2023/10/27 02:34:05;;;;;;;17.95;10.43;;;;;;;;;;5007613;28;20213;-66
2023/10/27 02:36:32;;;;;;;22.48;10.77;;;;;;;;;;5011276;28;20135;-66
2023/10/27 02:39:07;;;;;;;26.50;10.88;;;;;;;;;;5012660;28;20050;-66
2023/10/27 02:41:36;;;;;;;22.45;11.25;;;;;;;;;;5011738;28;20132;-66
2023/10/27 02:44:03;;;;;;;19.33;9.80;;;;;;;;;;5009604;28;20057;-66
2023/10/27 02:46:37;;;;;;;24.40;11.73;;;;;;;;;;5006059;28;20107;-67
2023/10/27 02:49:25;;;;;;;21.95;10.45;;;;;;;;;;5011678;28;20058;-52
2023/10/27 02:52:19;;;;;;;25.63;11.20;;;;;;;;;;5010856;28;20142;-63
2023/10/27 02:55:06;;;;;;;21.55;10.18;;;;;;;;;;5009154;28;20068;-63
2023/10/27 02:58:01;;;;;;;15.93;9.68;;;;;;;;;;5000313;28;22677;-63
2023/10/27 03:00:47;;;;;;;26.63;10.77;;;;;;;;;;5006898;28;20052;-63
2023/10/27 03:03:49;;;;;;;16.50;9.73;;;;;;;;;;5002981;28;20563;-63
2023/10/27 03:06:36;;;;;;;24.67;11.13;;;;;;;;;;5007923;28;20149;-52
2023/10/27 03:09:30;;;;;;;22.02;9.93;;;;;;;;;;5008484;28;20053;-60
2023/10/27 03:12:17;;;;;;;20.35;10.15;;;;;;;;;;5007062;28;20510;-61
2023/10/27 03:15:11;;;;;;;21.15;10.52;;;;;;;;;;5011993;28;20049;-61
2023/10/27 03:17:58;;;;;;;21.65;10.00;;;;;;;;;;5004840;28;20058;-60
2023/10/27 03:20:56;;;;;;;17.25;9.90;;;;;;;;;;5009310;28;20087;-60
2023/10/27 03:23:43;;;;;;;19.35;10.15;;;;;;;;;;5011764;28;20061;-59
2023/10/27 03:26:37;;;;;;;17.13;9.50;;;;;;;;;;5003937;28;20108;-59
2023/10/27 03:29:25;;;;;;;15.88;9.93;;;;;;;;;;5008093;28;20053;-63
2023/10/27 03:32:25;;;;;;;20.55;9.45;;;;;;;;;;5008328;28;21200;-63
2023/10/27 03:35:12;;;;;;;23.15;10.23;;;;;;;;;;5012069;28;20168;-63
2023/10/27 03:38:06;;;;;;;20.33;9.43;;;;;;;;;;5010153;28;20081;-63
2023/10/27 03:40:54;;;;;;;22.50;9.93;;;;;;;;;;5013970;28;20767;-63
2023/10/27 03:43:48;;;;;;;17.00;9.52;;;;;;;;;;5014361;28;20110;-53
2023/10/27 03:46:35;;;;;;;15.77;9.45;;;;;;;;;;5011374;28;20046;-60
2023/10/27 03:49:28;;;;;;;15.95;8.70;;;;;;;;;;5012805;28;20597;-60
2023/10/27 03:52:16;;;;;;;17.63;8.45;;;;;;;;;;5012847;28;20054;-60
2023/10/27 03:55:11;;;;;;;20.52;8.75;;;;;;;;;;5007579;28;20719;-60
2023/10/27 03:58:13;;;;;;;21.38;9.27;;;;;;;;;;5007720;28;20054;-60
2023/10/27 04:01:15;;;;;;;20.15;8.65;;;;;;;;;;5011929;28;20054;-52
2023/10/27 04:04:15;;;;;;;20.33;9.65;;;;;;;;;;5007620;28;20500;-60
2023/10/27 04:07:03;;;;;;;19.70;9.25;;;;;;;;;;5012596;28;20538;-59
2023/10/27 04:09:57;;;;;;;18.63;9.10;;;;;;;;;;5015785;28;20053;-59
2023/10/27 04:12:47;;;;;;;18.08;8.68;;;;;;;;;;5015181;28;20064;-59
2023/10/27 04:15:44;;;;;;;18.92;9.75;;;;;;;;;;5012957;28;20061;-59
2023/10/27 04:18:28;;;;;;;13.30;8.52;;;;;;;;;;5012536;28;20064;-60
2023/10/27 04:21:22;;;;;;;16.20;8.50;;;;;;;;;;5008331;28;20565;-51
2023/10/27 04:24:09;;;;;;;15.23;8.48;;;;;;;;;;5006630;28;20131;-59
2023/10/27 04:27:02;;;;;;;15.25;8.30;;;;;;;;;;5008449;28;20089;-60
2023/10/27 04:29:50;;;;;;;12.35;8.20;;;;;;;;;;5013656;28;20147;-60
2023/10/27 04:32:52;;;;;;;14.90;7.97;;;;;;;;;;5010375;28;20590;-59
2023/10/27 04:35:44;;;;;;;16.35;8.18;;;;;;;;;;5009915;28;20065;-59
2023/10/27 04:38:38;;;;;;;21.17;8.25;;;;;;;;;;5010474;28;20531;-52
2023/10/27 04:41:30;;;;;;;19.10;8.18;;;;;;;;;;5010879;28;20622;-59
2023/10/27 04:44:23;;;;;;;13.93;7.32;;;;;;;;;;5009895;28;20584;-59
2023/10/27 04:47:07;;;;;;;19.70;7.22;;;;;;;;;;5008307;28;20056;-60
2023/10/27 04:50:00;;;;;;;11.60;6.50;;;;;;;;;;5000407;28;20062;-59
2023/10/27 04:52:48;;;;;;;13.27;7.15;;;;;;;;;;5009608;28;20061;-59
2023/10/27 04:55:41;;;;;;;12.18;7.05;;;;;;;;;;5001625;28;20518;-60
2023/10/27 04:58:29;;;;;;;15.38;7.13;;;;;;;;;;5002410;28;20631;-52
2023/10/27 05:01:25;;;;;;;13.25;6.95;;;;;;;;;;4998617;28;20057;-63
2023/10/27 05:04:16;;;;;;;13.18;6.82;;;;;;;;;;4995109;28;20967;-63
2023/10/27 05:07:10;;;;;;;14.15;7.22;;;;;;;;;;4996796;28;20105;-63
2023/10/27 05:09:58;;;;;;;12.88;7.25;;;;;;;;;;5005207;28;20471;-63
2023/10/27 05:12:55;;;;;;;13.52;6.90;;;;;;;;;;5003126;28;20057;-63
2023/10/27 05:15:41;;;;;;;10.60;6.55;;;;;;;;;;5005004;28;20053;-66
2023/10/27 05:18:35;;;;;;;8.95;6.88;;;;;;;;;;5013619;28;20123;-65
2023/10/27 05:21:26;;;;;;;19.90;8.32;;;;;;;;;;5010736;28;20069;-63
2023/10/27 05:24:16;;;;;;;11.82;7.68;;;;;;;;;;5010507;28;20127;-63
2023/10/27 05:27:04;;;;;;;14.45;7.00;;;;;;;;;;5014121;28;20104;-63
2023/10/27 05:29:57;;;;;;;15.85;7.18;;;;;;;;;;5012228;28;20049;-63
2023/10/27 05:32:45;;;;;;;12.25;7.15;;;;;;;;;;5016101;28;20057;-62
2023/10/27 05:35:38;;;;;;;17.95;7.72;;;;;;;;;;5015588;28;20481;-61
2023/10/27 05:38:26;;;;;;;13.60;6.88;;;;;;;;;;5013540;28;20115;-66
2023/10/27 05:41:19;;;;;;;12.77;7.30;;;;;;;;;;5012616;28;20128;-66
2023/10/27 05:44:07;;;;;;;19.33;7.50;;;;;;;;;;5016302;28;20136;-66
2023/10/27 05:46:54;;;;;;;22.05;8.30;;;;;;;;;;5013518;28;20515;-66
2023/10/27 05:49:41;;;;;;;15.98;7.03;;;;;;;;;;5014425;28;20089;-66
2023/10/27 05:52:28;;;;;;;13.85;7.45;;;;;;;;;;5013223;28;20053;-59
2023/10/27 05:55:16;;;;;;;13.68;6.50;;;;;;;;;;5012917;28;20061;-64
2023/10/27 05:58:05;;;;;;;11.93;7.13;;;;;;;;;;5014439;28;20403;-63
2023/10/27 06:00:52;;;;;;;17.52;6.57;;;;;;;;;;5014373;28;20043;-63
2023/10/27 06:03:38;;;;;;;12.73;6.68;;;;;;;;;;5012423;28;20057;-64
2023/10/27 06:06:27;;;;;;;11.32;7.05;;;;;;;;;;5009871;28;20050;-63
2023/10/27 06:09:13;;;;;;;14.13;7.20;;;;;;;;;;5013115;28;20127;-63
2023/10/27 06:12:00;;;;;;;13.27;6.68;;;;;;;;;;5013511;28;20042;-59
2023/10/27 06:14:48;;;;;;;12.57;6.97;;;;;;;;;;5015285;28;20089;-66
2023/10/27 06:17:35;;;;;;;19.38;6.68;;;;;;;;;;5012242;28;20052;-67
2023/10/27 06:20:22;;;;;;;16.00;6.93;;;;;;;;;;5014377;28;20510;-67
2023/10/27 06:23:10;;;;;;;16.02;7.00;;;;;;;;;;5011203;28;20057;-66
2023/10/27 06:25:57;;;;;;;20.50;7.22;;;;;;;;;;5009109;28;20057;-66
2023/10/27 06:28:46;;;;;;;15.18;6.70;;;;;;;;;;5011715;28;20135;-59
2023/10/27 06:31:32;;;;;;;15.05;7.57;;;;;;;;;;5010129;28;20053;-59
2023/10/27 06:34:19;;;;;;;11.38;7.50;;;;;;;;;;5012605;28;20049;-59
2023/10/27 06:37:07;;;;;;;16.08;7.53;;;;;;;;;;5014250;28;20565;-59
2023/10/27 06:39:58;;;;;;;10.73;7.13;;;;;;;;;;5014645;28;20077;-59
2023/10/27 06:42:42;;;;;;;14.38;6.93;;;;;;;;;;5008889;28;20050;-59
2023/10/27 06:45:29;;;;;;;11.70;7.05;;;;;;;;;;5011473;28;20135;-59
2023/10/27 06:48:16;;;;;;;14.02;6.78;;;;;;;;;;5008600;28;20085;-60
2023/10/27 06:51:03;;;;;;;14.15;7.15;;;;;;;;;;5011639;28;20443;-50
2023/10/27 06:53:51;;;;;;;11.35;7.15;;;;;;;;;;4998845;28;20098;-50
2023/10/27 06:56:38;;;;;;;17.35;6.35;;;;;;;;;;5013553;28;20054;-51
2023/10/27 06:59:25;;;;;;;15.50;6.85;;;;;;;;;;5012849;28;20135;-47
2023/10/27 07:02:13;;;;;;;16.17;7.75;;;;;;;;;;5014828;28;20465;-51
2023/10/27 07:05:20;;;;;;;13.25;7.15;;;;;;;;;;5014835;28;20089;-54
2023/10/27 07:08:09;;;;;;;20.40;7.90;;;;;;;;;;5012071;28;20049;-51
2023/10/27 07:10:58;;;;;;;17.35;7.20;;;;;;;;;;5015744;28;20066;-52
2023/10/27 07:13:42;;;;;;;16.98;7.20;;;;;;;;;;5016015;28;20050;-48
2023/10/27 07:16:29;;;;;;;14.38;7.65;;;;;;;;;;5018054;28;20461;-52
2023/10/27 07:19:17;;;;;;;16.85;7.95;;;;;;;;;;5016099;28;20078;-48
2023/10/27 07:22:04;;;;;;;16.80;8.00;;;;;;;;;;5014208;28;20053;-47
2023/10/27 07:24:52;;;;;;;13.15;7.65;;;;;;;;;;5014518;28;20065;-49
2023/10/27 07:27:39;;;;;;;14.85;7.28;;;;;;;;;;5014728;28;20080;-52
2023/10/27 07:30:26;;;;;;;12.95;7.28;;;;;;;;;;5018879;28;20061;-55
2023/10/27 07:33:14;;;;;;;12.63;7.35;;;;;;;;;;5018942;28;20494;-54
2023/10/27 07:36:02;;;;;;;16.83;7.70;;;;;;;;;;5018960;28;20402;-52
2023/10/27 07:38:51;;;;;;;14.52;8.05;;;;;;;;;;5014885;28;20060;-53
2023/10/27 07:41:39;;;;;;;15.48;7.85;;;;;;;;;;5015715;28;20046;-63
2023/10/27 07:44:26;;;;;;;10.18;6.63;;;;;;;;;;5019585;28;20060;-61
2023/10/27 07:47:14;;;;;;;14.80;7.68;;;;;;;;;;5018092;28;20142;-50
2023/10/27 07:50:01;;;;;;;11.35;7.25;;;;;;;;;;5017533;28;20115;-51
2023/10/27 07:52:48;;;;;;;16.45;8.00;;;;;;;;;;5015377;28;20124;-54
2023/10/27 07:55:36;;;;;;;12.75;6.88;;;;;;;;;;5020331;28;20099;-46
2023/10/27 07:58:24;;;;;;;13.70;7.45;;;;;;;;;;5015270;28;20085;-53
2023/10/27 08:01:11;;;;;;;10.30;6.90;;;;;;;;;;5018417;28;20154;-58
2023/10/27 08:04:02;;;;;;;10.95;7.30;;;;;;;;;;5012992;28;20150;-59
2023/10/27 08:06:47;;;;;;;12.68;7.75;;;;;;;;;;5016024;28;20081;-59
2023/10/27 08:09:38;;;;;;;11.88;7.25;;;;;;;;;;5019698;28;20072;-60
2023/10/27 08:12:26;;;;;;;11.55;7.13;;;;;;;;;;5019948;28;20103;-59
2023/10/27 08:15:13;;;;;;;9.40;6.63;;;;;;;;;;5016794;28;20057;-59
2023/10/27 08:18:01;;;;;;;11.93;6.82;;;;;;;;;;5015868;28;20049;-59
2023/10/27 08:20:50;;;;;;;12.73;6.70;;;;;;;;;;5015903;28;20042;-59
2023/10/27 08:23:37;;;;;;;12.32;7.43;;;;;;;;;;5016001;28;20717;-59
2023/10/27 08:26:24;;;;;;;10.85;7.35;;;;;;;;;;5017767;28;20072;-59
2023/10/27 08:29:11;;;;;;;12.35;6.47;;;;;;;;;;5013597;28;20100;-59
2023/10/27 08:31:59;;;;;;;11.60;6.28;;;;;;;;;;5016314;28;22587;-60
2023/10/27 08:34:46;;;;;;;15.98;6.70;;;;;;;;;;5017500;28;20475;-59
2023/10/27 08:37:34;;;;;;;12.20;7.03;;;;;;;;;;5017550;28;20107;-49
2023/10/27 08:40:22;;;;;;;10.65;6.72;;;;;;;;;;5017883;28;20099;-50
2023/10/27 08:43:08;;;;;;;11.93;6.75;;;;;;;;;;5015349;28;20580;-48
2023/10/27 08:45:56;;;;;;;18.95;7.57;;;;;;;;;;5015159;28;20053;-52
2023/10/27 08:48:43;;;;;;;11.55;7.00;;;;;;;;;;5015004;28;20053;-51
2023/10/27 08:51:32;;;;;;;15.90;7.53;;;;;;;;;;5016029;28;21204;-52
2023/10/27 08:54:20;;;;;;;13.43;6.68;;;;;;;;;;5013054;28;20144;-50
2023/10/27 08:57:08;;;;;;;14.52;6.78;;;;;;;;;;5016253;28;20079;-60
2023/10/27 08:59:55;;;;;;;12.90;6.70;;;;;;;;;;5017183;28;20095;-60
2023/10/27 09:02:42;;;;;;;11.60;6.53;;;;;;;;;;5015577;28;20057;-58
2023/10/27 09:05:32;;;;;;;12.93;6.65;;;;;;;;;;5010853;28;20152;-59
2023/10/27 09:08:23;;;;;;;12.38;6.68;;;;;;;;;;5013469;28;20064;-59
2023/10/27 09:11:24;;;;;;;15.00;7.50;;;;;;;;;;5015974;28;20065;-60
2023/10/27 09:14:30;;;;;;;10.30;6.20;;;;;;;;;;5011415;28;20108;-54
2023/10/27 09:17:25;;;;;;;10.88;6.93;;;;;;;;;;5003636;28;20054;-58
2023/10/27 09:20:12;;;;;;;12.38;6.68;;;;;;;;;;5015392;28;20590;-58
2023/10/27 09:23:05;;;;;;;12.30;6.30;;;;;;;;;;5009677;28;20099;-59
2023/10/27 09:25:57;;;;;;;9.82;6.85;;;;;;;;;;5012494;28;20695;-60
2023/10/27 09:29:01;;;;;;;8.63;6.18;;;;;;;;;;5012593;28;20502;-61
2023/10/27 09:31:47;;;;;;;11.82;7.03;;;;;;;;;;5016025;28;20068;-60
2023/10/27 09:34:40;;;;;;;10.80;5.85;;;;;;;;;;5013712;28;20100;-61
2023/10/27 09:37:28;;;;;;;13.32;7.07;;;;;;;;;;5012323;28;20061;-56
2023/10/27 09:40:22;;;;;;;12.98;6.95;;;;;;;;;;5015107;28;20089;-54
2023/10/27 09:43:15;;;;;;;15.25;6.93;;;;;;;;;;5014490;28;20049;-51
2023/10/27 09:46:08;;;;;;;15.00;7.90;;;;;;;;;;5017378;28;20049;-53
2023/10/27 09:48:58;;;;;;;13.10;6.70;;;;;;;;;;5015602;28;20484;-50
2023/10/27 09:51:53;;;;;;;11.30;6.63;;;;;;;;;;5014425;28;20060;-60
2023/10/27 09:54:41;;;;;;;16.33;7.00;;;;;;;;;;5011729;28;20488;-60
2023/10/27 09:57:44;;;;;;;10.52;6.32;;;;;;;;;;5015167;28;20053;-61
2023/10/27 10:00:31;;;;;;;14.95;6.57;;;;;;;;;;5012460;28;20064;-60
2023/10/27 10:03:31;;;;;;;10.73;6.47;;;;;;;;;;5016253;28;20054;-61
2023/10/27 10:06:25;;;;;;;12.20;6.35;;;;;;;;;;5012190;28;20053;-60
2023/10/27 10:09:19;;;;;;;17.40;6.95;;;;;;;;;;5012669;28;20062;-63
2023/10/27 10:12:13;;;;;;;12.10;6.20;;;;;;;;;;5010263;28;20100;-60
2023/10/27 10:15:05;;;;;;;13.40;6.45;;;;;;;;;;5015040;28;20054;-59
2023/10/27 10:17:55;;;;;;;11.10;5.22;;;;;;;;;;5012272;28;20049;-60
2023/10/27 10:20:44;;;;;;;13.68;6.28;;;;;;;;;;5014507;28;20545;-59
2023/10/27 10:23:40;;;;;;;13.73;6.55;;;;;;;;;;5010367;28;20583;-61
2023/10/27 10:26:45;;;;;;;12.93;5.22;;;;;;;;;;5011583;28;20050;-60
2023/10/27 10:29:38;;;;;;;11.90;5.35;;;;;;;;;;5008799;28;20056;-54
2023/10/27 10:32:30;;;;;;;14.27;5.68;;;;;;;;;;5012903;28;20088;-59
2023/10/27 10:35:23;;;;;;;10.85;5.60;;;;;;;;;;5012667;28;20065;-59
2023/10/27 10:38:23;;;;;;;12.20;5.25;;;;;;;;;;5012429;28;20053;-59
2023/10/27 10:41:18;;;;;;;17.60;6.07;;;;;;;;;;5012315;28;20848;-58
2023/10/27 10:44:12;;;;;;;15.40;6.43;;;;;;;;;;5008664;28;20058;-59
2023/10/27 10:47:00;;;;;;;12.73;5.35;;;;;;;;;;5010596;28;20054;-54
2023/10/27 10:49:53;;;;;;;16.77;6.03;;;;;;;;;;5013848;28;20073;-58
2023/10/27 10:52:40;;;;;;;15.27;6.05;;;;;;;;;;5010326;28;20061;-60
2023/10/27 10:55:35;;;;;;;11.80;4.93;;;;;;;;;;5011237;28;20058;-60
2023/10/27 10:58:22;;;;;;;13.73;5.93;;;;;;;;;;5009123;28;20050;-60
2023/10/27 11:01:22;;;;;;;16.30;5.60;;;;;;;;;;5009489;28;20054;-59
2023/10/27 11:04:16;;;;;;;15.10;5.45;;;;;;;;;;5013014;28;20063;-63
2023/10/27 11:07:09;;;;;;;12.25;5.57;;;;;;;;;;5010508;28;20049;-59
2023/10/27 11:10:16;;;;;;;13.13;5.93;;;;;;;;;;5015913;28;20057;-59
2023/10/27 11:13:10;;;;;;;17.70;6.38;;;;;;;;;;5010945;28;20127;-59
2023/10/27 11:15:57;;;;;;;14.80;5.50;;;;;;;;;;5010803;28;20052;-59
2023/10/27 11:18:53;;;;;;;13.90;5.60;;;;;;;;;;5014338;28;20053;-59
2023/10/27 11:21:51;;;;;;;12.18;5.53;;;;;;;;;;5013607;28;20056;-59
2023/10/27 11:24:48;;;;;;;14.52;5.18;;;;;;;;;;5014324;28;20057;-65
2023/10/27 11:27:38;;;;;;;14.48;6.28;;;;;;;;;;5014017;28;20053;-64
2023/10/27 11:30:29;;;;;;;16.08;5.35;;;;;;;;;;5008844;28;20056;-64
2023/10/27 11:33:16;;;;;;;13.40;5.60;;;;;;;;;;5011882;28;20151;-64
2023/10/27 11:36:13;;;;;;;10.75;5.57;;;;;;;;;;5015770;28;20648;-63
2023/10/27 11:39:19;;;;;;;11.18;5.82;;;;;;;;;;5010771;28;20144;-64
2023/10/27 11:42:13;;;;;;;14.13;5.15;;;;;;;;;;5014786;28;20075;-59
2023/10/27 11:45:00;;;;;;;14.27;5.75;;;;;;;;;;5014952;28;20053;-59
2023/10/27 11:47:54;;;;;;;12.15;5.78;;;;;;;;;;5010772;28;20045;-59
2023/10/27 11:50:41;;;;;;;10.10;5.65;;;;;;;;;;5011512;28;20050;-59
2023/10/27 11:53:35;;;;;;;8.18;4.80;;;;;;;;;;5009868;28;20768;-60
2023/10/27 11:56:22;;;;;;;9.77;5.80;;;;;;;;;;5013274;28;20151;-59
2023/10/27 11:59:17;;;;;;;10.27;5.78;;;;;;;;;;5016092;28;20053;-63
2023/10/27 12:02:04;;;;;;;13.13;5.57;;;;;;;;;;5015452;28;20397;-64
2023/10/27 12:05:04;;;;;;;7.75;5.20;;;;;;;;;;5014913;28;20050;-65
2023/10/27 12:07:52;;;;;;;8.52;5.50;;;;;;;;;;5016029;28;20053;-65
2023/10/27 12:10:46;;;;;;;10.65;5.78;;;;;;;;;;5018799;28;20111;-65
2023/10/27 12:13:33;;;;;;;9.75;5.22;;;;;;;;;;5017897;28;20063;-65
2023/10/27 12:16:29;;;;;;;10.32;5.30;;;;;;;;;;5015795;28;20049;-65
2023/10/27 12:19:17;;;;;;;9.13;5.07;;;;;;;;;;5014243;28;20050;-59
2023/10/27 12:22:11;;;;;;;9.13;5.60;;;;;;;;;;5018658;28;20119;-48
2023/10/27 12:24:58;;;;;;;7.43;5.30;;;;;;;;;;5018361;28;20103;-49
2023/10/27 12:27:52;;;;;;;7.60;5.13;;;;;;;;;;5017446;28;20064;-49
2023/10/27 12:30:39;;;;;;;11.70;5.38;;;;;;;;;;5012319;28;20149;-48
2023/10/27 12:33:33;;;;;;;9.38;5.15;;;;;;;;;;5014355;28;20099;-51
2023/10/27 12:36:27;;;;;;;8.48;5.25;;;;;;;;;;5015732;28;20132;-59
2023/10/27 12:39:23;;;;;;;9.30;4.70;;;;;;;;;;5018931;28;20050;-52
2023/10/27 12:42:08;;;;;;;7.22;5.30;;;;;;;;;;5016362;28;20052;-50
2023/10/27 12:45:02;;;;;;;9.90;5.28;;;;;;;;;;5015220;28;20054;-48
2023/10/27 12:47:50;;;;;;;8.45;4.80;;;;;;;;;;5012463;28;20482;-50
2023/10/27 12:50:44;;;;;;;12.13;4.88;;;;;;;;;;5013178;28;20049;-49
2023/10/27 12:53:30;;;;;;;8.95;4.90;;;;;;;;;;5014529;28;20131;-51
2023/10/27 12:56:23;;;;;;;7.50;4.90;;;;;;;;;;5017662;28;20053;-58
2023/10/27 12:59:11;;;;;;;8.73;4.90;;;;;;;;;;5017904;28;20602;-52
2023/10/27 13:02:18;;;;;;;6.65;4.50;;;;;;;;;;5017626;28;20078;-47
2023/10/27 13:05:13;;;;;;;9.13;4.75;;;;;;;;;;5014355;28;20065;-50
2023/10/27 13:08:07;;;;;;;6.78;4.20;;;;;;;;;;5016113;28;20145;-48
2023/10/27 13:11:04;;;;;;;9.40;4.78;;;;;;;;;;5008048;28;20053;-54
2023/10/27 13:13:57;;;;;;;9.90;4.55;;;;;;;;;;5016632;28;20147;-54
2023/10/27 13:16:50;;;;;;;6.97;4.47;;;;;;;;;;5011936;28;20701;-60
2023/10/27 13:19:38;;;;;;;6.40;4.47;;;;;;;;;;5011476;28;20081;-60
2023/10/27 13:22:33;;;;;;;7.80;4.43;;;;;;;;;;5013414;28;20064;-60
2023/10/27 13:25:19;;;;;;;7.93;4.27;;;;;;;;;;5013904;28;20052;-60
2023/10/27 13:28:14;;;;;;;10.13;4.43;;;;;;;;;;5013813;28;20331;-60
2023/10/27 13:31:01;;;;;;;6.75;4.25;;;;;;;;;;5013610;28;20053;-60
2023/10/27 13:33:57;;;;;;;9.50;4.38;;;;;;;;;;5010176;28;20155;-63
2023/10/27 13:36:42;;;;;;;12.10;4.75;;;;;;;;;;5015491;28;20077;-60
2023/10/27 13:39:35;;;;;;;7.65;4.32;;;;;;;;;;5014040;28;20137;-60
2023/10/27 13:42:23;;;;;;;7.78;4.40;;;;;;;;;;5015583;28;20045;-59
2023/10/27 13:45:17;;;;;;;5.47;3.88;;;;;;;;;;5014150;28;20123;-59
2023/10/27 13:48:04;;;;;;;7.03;4.43;;;;;;;;;;5014644;28;20971;-59
2023/10/27 13:51:06;;;;;;;7.97;4.50;;;;;;;;;;5013165;28;20545;-63
2023/10/27 13:53:33;;;;;;;8.43;4.53;;;;;;;;;;5011238;28;20146;-60
2023/10/27 13:56:12;;;;;;;7.97;4.68;;;;;;;;;;5016178;28;20038;-60
2023/10/27 13:58:40;;;;;;;8.55;4.88;;;;;;;;;;5010369;28;20053;-61
2023/10/27 14:01:34;;;;;;;7.40;3.90;;;;;;;;;;5014751;28;20768;-61
2023/10/27 14:04:28;;;;;;;10.40;4.07;;;;;;;;;;5009548;28;20136;-60
2023/10/27 14:07:22;;;;;;;7.40;4.13;;;;;;;;;;5013939;28;20049;-60
2023/10/27 14:10:10;;;;;;;10.52;4.10;;;;;;;;;;5016872;28;20140;-59
2023/10/27 14:13:10;;;;;;;7.45;4.20;;;;;;;;;;5011148;28;21157;-52
2023/10/27 14:15:58;;;;;;;10.27;4.50;;;;;;;;;;5011074;28;20053;-51
2023/10/27 14:18:39;;;;;;;7.53;4.00;;;;;;;;;;5013107;28;20989;-50
2023/10/27 14:21:20;;;;;;;7.22;4.13;;;;;;;;;;5011192;28;20148;-50
2023/10/27 14:24:01;;;;;;;9.20;4.10;;;;;;;;;;5009674;28;20761;-53
2023/10/27 14:26:49;;;;;;;9.45;4.18;;;;;;;;;;5013625;28;20069;-64
2023/10/27 14:29:43;;;;;;;10.40;4.57;;;;;;;;;;5012504;28;20151;-63
2023/10/27 14:32:30;;;;;;;7.85;4.38;;;;;;;;;;5015725;28;20053;-63
2023/10/27 14:35:25;;;;;;;7.25;3.97;;;;;;;;;;5017142;28;20053;-64
2023/10/27 14:38:15;;;;;;;7.20;4.00;;;;;;;;;;5013885;28;20054;-63
2023/10/27 14:41:10;;;;;;;8.38;3.70;;;;;;;;;;5013928;28;20103;-63
2023/10/27 14:44:03;;;;;;;7.20;3.80;;;;;;;;;;5008704;28;20056;-62
2023/10/27 14:46:57;;;;;;;6.22;3.72;;;;;;;;;;5015685;28;20050;-60
2023/10/27 14:50:08;;;;;;;7.47;3.83;;;;;;;;;;5016042;28;20057;-59
2023/10/27 14:52:57;;;;;;;7.78;3.70;;;;;;;;;;5010688;28;20053;-58
2023/10/27 14:55:56;;;;;;;9.02;3.83;;;;;;;;;;5011426;28;20057;-59
2023/10/27 14:58:43;;;;;;;9.30;4.03;;;;;;;;;;5012909;28;20049;-58
2023/10/27 15:01:39;;;;;;;6.68;3.80;;;;;;;;;;5014009;28;20057;-58
2023/10/27 15:04:31;;;;;;;5.75;3.58;;;;;;;;;;5011800;28;20045;-62
2023/10/27 15:07:26;;;;;;;9.15;4.93;;;;;;;;;;5013387;28;20061;-66
2023/10/27 15:10:16;;;;;;;10.77;5.40;;;;;;;;;;5012139;28;20057;-65
2023/10/27 15:13:07;;;;;;;13.07;6.40;;;;;;;;;;5006627;28;20052;-65
2023/10/27 15:15:48;;;;;;;11.05;5.72;;;;;;;;;;5012427;28;20065;-66
2023/10/27 15:18:43;;;;;;;9.18;5.90;;;;;;;;;;5012977;28;20057;-63
2023/10/27 15:21:31;;;;;;;9.93;4.80;;;;;;;;;;5014262;28;20507;-63
2023/10/27 15:24:26;;;;;;;11.27;4.47;;;;;;;;;;5007195;28;20470;-56
2023/10/27 15:27:11;;;;;;;8.45;4.63;;;;;;;;;;5002193;28;20066;-63
2023/10/27 15:30:06;;;;;;;7.22;3.83;;;;;;;;;;5004182;28;20113;-62
2023/10/27 15:32:53;;;;;;;10.02;4.03;;;;;;;;;;5007518;28;20145;-63
2023/10/27 15:35:47;;;;;;;8.90;3.72;;;;;;;;;;5010280;28;20067;-62
2023/10/27 15:38:15;;;;;;;7.80;3.60;;;;;;;;;;5006347;28;20064;-63
2023/10/27 15:41:25;;;;;;;9.35;3.70;;;;;;;;;;5012176;28;20049;-53
2023/10/27 15:44:13;;;;;;;8.38;3.65;;;;;;;;;;5003731;28;20061;-52
2023/10/27 15:47:05;;;;;;;8.63;4.30;;;;;;;;;;5003105;28;20064;-53
2023/10/27 15:49:53;;;;;;;8.35;4.97;;;;;;;;;;5001191;28;20053;-49
2023/10/27 15:52:46;;;;;;;6.38;3.83;;;;;;;;;;5004190;28;20586;-53
2023/10/27 15:55:37;;;;;;;7.90;3.90;;;;;;;;;;5005049;28;20060;-54
2023/10/27 15:58:31;;;;;;;10.85;4.28;;;;;;;;;;5008778;28;20399;-63
2023/10/27 16:01:19;;;;;;;7.78;4.03;;;;;;;;;;5004270;28;20969;-61
2023/10/27 16:04:19;;;;;;;5.25;4.05;;;;;;;;;;5007707;28;20529;-60
2023/10/27 16:07:09;;;;;;;9.90;4.20;;;;;;;;;;5009249;28;20060;-60
2023/10/27 16:10:00;;;;;;;7.60;4.18;;;;;;;;;;5007889;28;20045;-61
2023/10/27 16:12:48;;;;;;;9.87;4.40;;;;;;;;;;5010876;28;20056;-60
2023/10/27 16:15:41;;;;;;;9.70;3.90;;;;;;;;;;5008630;28;20312;-60
2023/10/27 16:18:37;;;;;;;12.60;3.90;;;;;;;;;;5010919;28;20069;-51
2023/10/27 16:21:31;;;;;;;7.40;3.65;;;;;;;;;;5012613;28;20045;-64
2023/10/27 16:24:18;;;;;;;6.75;4.45;;;;;;;;;;5009916;28;20068;-63
2023/10/27 16:27:12;;;;;;;9.63;4.13;;;;;;;;;;5009331;28;20523;-63
2023/10/27 16:29:47;;;;;;;6.68;4.18;;;;;;;;;;5015013;28;20057;-63
2023/10/27 16:32:41;;;;;;;5.82;4.15;;;;;;;;;;5012477;28;20061;-63
2023/10/27 16:35:29;;;;;;;8.10;4.00;;;;;;;;;;5012635;28;20580;-63
2023/10/27 16:38:22;;;;;;;9.65;3.78;;;;;;;;;;5008649;28;20852;-63
2023/10/27 16:41:11;;;;;;;5.25;3.22;;;;;;;;;;5004769;28;20057;-63
2023/10/27 16:44:04;;;;;;;5.43;2.88;;;;;;;;;;5008709;28;20068;-63
2023/10/27 17:47:15;;;;;;;7.78;3.13;;;;;;;;;;5752192;23;8426131;-79